Algodones, NM

9:58 PM MDT on September 30, 2014 (GMT -0600)
On The Loop | Change Station
CLOSE
Current Station
Personal Weather Station
Location: Placitas, NM
Elevation: 5260 ft
Nearby Weather Stations

Elev 5260 ft 35.34 °N, 106.50 °W | Updated 26 minutes ago

Clear
Clear
59.8 °F
Feels Like 59.8 °F
N
0.0
Wind Variable Wind from NW
Gusts 0.0 mph

Today
High -- | Low -- °F
--% Chance of Precip.
Yesterday
High -- | Low -- °F
Precip. -- in
7:00 AM 6:51 PM
Waxing Crescent, 43% visible
Pressure 29.99 in
Visibility 10.0 miles
Clouds Clear
Dew Point 34 °F
Humidity 38%
Rainfall 0.00 in
Snow Depth 1 in , 0 in , 1 in
UV 0.0 out of 12
Pollen 5.80 out of 12
Air Quality Not available.
Flu Activity Not available.
METAR KAEG 010250Z 31006KT 10SM SKC 13/M01 A2999

More Conditions Fewer Conditions

Pressure 29.99 in
Visibility 10.0 miles
Clouds Clear
Dew Point 34 °F
Humidity 38%
Rainfall 0.00 in
Snow Depth 1 in , 0 in , 1 in
UV 0.0 out of 12
Pollen 5.80 out of 12
Air Quality Not available.
Flu Activity Not available.
METAR KAEG 010250Z 31006KT 10SM SKC 13/M01 A2999

More Conditions Fewer Conditions

10-Day Weather Forecast

Almanac

Astronomy

Sep. 30, 2014 Rise Set
Actual Time 7:00 AM MDT 6:51 PM MDT
Civil Twilight 6:34 AM MDT 7:16 PM MDT
Nautical Twilight 6:05 AM MDT 7:45 PM MDT
Astronomical Twilight 5:35 AM MDT 8:15 PM MDT
Moon 1:01 PM MDT (9/30) 11:33 PM MDT (9/30)
Length of Visible Light 12h 41m
Length of Day
11h 51m
Tomorrow will be 2m 13s shorter.
Waxing Crescent, 43% of the Moon is Illuminated
Today
Waxing Crescent
Oct 1
First Quarter
Oct 8
Full
Oct 15
Last Quarter
Oct 23
New

Today's Extremes

State Highs State Lows

Community

WunderPhotos

Upload Photos

1,757,829 photos uploaded!

Nearby

Snow Depth

Station Depth Elevation
Red River Pass #2 1 in 9850 ft
Chamita 0 in 8400 ft
Hopewell 1 in 10000 ft
Gallegos Peak 0 in 9800 ft
Wesner Springs 3 in 11120 ft

Earthquake Activity

City Distance Mag. Time & Date
Trinidad, Colorado 144 miles 2.9 3:55 AM MDT
2014-09-30
Minimum magnitude displayed is 2.5.

Coastal Water Temperatures

Place Temperature
No Stations Reporting

Nearby Weather Stations